Pontoon, Arkansas
Current Conditions -  °F | °C
As of 7:53 AM on Wednesday 22 Oct 2014 (Local Time) from KRUE Reporting Station
Clear Clear  
Wind Chill: 12°   Ceiling: Unl
Heat Index: 12°   Visibility: 10mi
Dew Point:   Wind: 5mph
Humidity: 83%   Direction: 90°E
Pressure: 30.2"   Gusts: NA
Location:  35.031°N, 93.0373°W
Report Text: KRUE 221253Z AUTO 09004KT 10SM CLR 12/09 A3020 RMK AO2 SLP222 T01170089
Loading
Personal Weather Stations






























Interactive Weather Map
Tropical Storm Tracking
New forecast layout! Learn more

10-Day Weather Forecast

Advertisements
Track Severe Weather on mobile